Time;durP1;ratioP1;P1;durP2;ratioP2;P2;SDS_P1;SDS_P2;PMS_P1;PMS_P2;Temp;Humidity;BMP_temperature;BMP_pressure;BME280_temperature;BME280_humidity;BME280_pressure;Samples;Min_cycle;Max_cycle;Signal;HPM_P1;HPM_P2
2023/05/19 00:00:36;;;;;;;8.07;3.00;;;11.90;22.20;;;;;;5066042;28;20465;-66
2023/05/19 00:03:03;;;;;;;6.47;3.00;;;11.90;21.90;;;;;;5066977;28;20484;-66
2023/05/19 00:05:30;;;;;;;6.13;2.67;;;11.90;21.80;;;;;;5068158;28;20457;-66
2023/05/19 00:08:00;;;;;;;8.50;3.50;;;11.80;21.80;;;;;;5063145;28;20465;-66
2023/05/19 00:10:30;;;;;;;5.93;2.93;;;11.70;22.20;;;;;;5064644;28;20501;-66
2023/05/19 00:12:57;;;;;;;7.07;3.17;;;11.70;22.10;;;;;;5064615;28;20477;-66
2023/05/19 00:15:24;;;;;;;9.37;3.70;;;11.80;22.00;;;;;;5063698;28;20488;-67
2023/05/19 00:17:54;;;;;;;9.20;3.57;;;11.70;22.20;;;;;;5066949;28;20598;-67
2023/05/19 00:20:20;;;;;;;8.23;3.33;;;11.70;22.40;;;;;;5065919;28;20457;-67
2023/05/19 00:22:47;;;;;;;7.37;3.13;;;11.60;22.50;;;;;;5066554;28;20864;-67
2023/05/19 00:25:15;;;;;;;7.40;3.50;;;11.70;22.60;;;;;;5063679;28;20450;-66
2023/05/19 00:27:42;;;;;;;6.20;3.23;;;11.70;22.30;;;;;;5067066;28;20461;-69
2023/05/19 00:30:09;;;;;;;7.47;3.40;;;11.70;22.40;;;;;;5062451;28;20457;-67
2023/05/19 00:32:36;;;;;;;7.47;3.20;;;11.70;22.90;;;;;;5064238;28;20469;-66
2023/05/19 00:35:03;;;;;;;8.07;3.10;;;11.70;22.90;;;;;;5065950;28;20984;-67
2023/05/19 00:37:29;;;;;;;8.50;3.73;;;11.70;23.00;;;;;;5065404;28;20465;-66
2023/05/19 00:39:57;;;;;;;7.30;3.00;;;11.70;23.10;;;;;;5065857;28;20485;-68
2023/05/19 00:42:26;;;;;;;7.03;3.70;;;11.70;23.20;;;;;;5058566;28;20477;-67
2023/05/19 00:44:53;;;;;;;6.97;3.20;;;11.70;23.40;;;;;;5064919;28;20469;-66
2023/05/19 00:47:20;;;;;;;8.47;4.03;;;11.70;23.20;;;;;;5068414;28;20461;-66
2023/05/19 00:49:47;;;;;;;9.23;3.70;;;11.70;23.20;;;;;;5069104;28;20461;-67
2023/05/19 00:52:13;;;;;;;8.40;3.83;;;11.70;23.10;;;;;;5069004;28;20488;-66
2023/05/19 00:54:40;;;;;;;9.10;3.70;;;11.80;22.90;;;;;;5078681;22;20489;-68
2023/05/19 00:57:07;;;;;;;9.30;3.83;;;11.70;23.20;;;;;;5065758;28;20468;-68
2023/05/19 00:59:35;;;;;;;7.57;3.60;;;11.80;22.90;;;;;;5065646;28;20799;-68
2023/05/19 01:02:02;;;;;;;8.00;4.07;;;11.80;22.90;;;;;;5063957;28;20468;-67
2023/05/19 01:04:33;;;;;;;7.43;4.00;;;11.80;22.90;;;;;;5062648;28;20965;-68
2023/05/19 01:07:00;;;;;;;8.60;4.07;;;11.70;23.20;;;;;;5060554;28;21060;-67
2023/05/19 01:09:27;;;;;;;8.33;4.20;;;11.70;22.90;;;;;;5062110;28;20492;-67
2023/05/19 01:11:54;;;;;;;12.33;5.07;;;11.60;23.00;;;;;;5063733;28;20496;-67
2023/05/19 01:14:21;;;;;;;10.87;4.90;;;11.60;23.30;;;;;;5069775;28;20478;-67
2023/05/19 01:16:55;;;;;;;9.13;4.40;;;11.60;23.40;;;;;;5070758;28;20522;-67
2023/05/19 01:19:55;;;;;;;9.00;4.53;;;11.50;23.40;;;;;;5068536;28;20550;-67
2023/05/19 01:22:41;;;;;;;11.07;5.17;;;11.50;23.70;;;;;;5065540;28;20575;-67
2023/05/19 01:25:31;;;;;;;10.37;4.33;;;11.50;23.50;;;;;;5068607;28;20461;-67
2023/05/19 01:28:26;;;;;;;9.53;3.97;;;11.50;23.80;;;;;;5068679;28;20472;-67
2023/05/19 01:30:55;;;;;;;10.07;4.03;;;11.40;23.60;;;;;;5065174;28;20496;-67
2023/05/19 01:33:23;;;;;;;11.30;4.30;;;11.40;23.60;;;;;;5065847;28;20489;-67
2023/05/19 01:35:53;;;;;;;9.80;4.07;;;11.40;23.90;;;;;;5066103;28;20481;-67
2023/05/19 01:38:20;;;;;;;9.23;4.73;;;11.40;23.80;;;;;;5064372;28;20469;-67
2023/05/19 01:40:49;;;;;;;9.80;4.23;;;11.30;24.20;;;;;;5066264;28;20464;-67
2023/05/19 01:43:21;;;;;;;8.63;4.30;;;11.30;24.30;;;;;;5066328;28;20491;-67
2023/05/19 01:45:49;;;;;;;13.87;4.70;;;11.30;24.40;;;;;;5064329;28;20461;-68
2023/05/19 01:48:18;;;;;;;11.53;5.27;;;11.30;24.30;;;;;;5062541;28;20464;-68
2023/05/19 01:50:45;;;;;;;10.90;4.93;;;11.30;24.40;;;;;;5067595;28;20481;-67
2023/05/19 01:53:11;;;;;;;12.67;4.10;;;11.20;24.90;;;;;;5066761;28;20489;-68
2023/05/19 01:55:45;;;;;;;12.60;5.17;;;11.20;25.00;;;;;;5065532;28;20476;-67
2023/05/19 01:58:18;;;;;;;11.63;4.30;;;11.20;24.80;;;;;;5063500;28;20469;-67
2023/05/19 02:00:52;;;;;;;9.33;5.10;;;11.20;25.10;;;;;;5062977;28;20553;-67
2023/05/19 02:03:32;;;;;;;12.90;4.80;;;11.20;25.20;;;;;;5061706;28;20530;-67
2023/05/19 02:06:08;;;;;;;12.93;4.77;;;11.20;25.40;;;;;;5065972;28;20465;-67
2023/05/19 02:08:43;;;;;;;12.10;5.20;;;11.20;25.30;;;;;;5061365;28;21169;-68
2023/05/19 02:11:17;;;;;;;11.83;5.03;;;11.20;25.10;;;;;;5058183;28;20473;-67
2023/05/19 02:13:45;;;;;;;12.63;4.70;;;11.20;25.20;;;;;;5068198;28;20460;-68
2023/05/19 02:16:14;;;;;;;11.40;4.97;;;11.20;25.00;;;;;;5065213;28;20481;-68
2023/05/19 02:18:44;;;;;;;10.27;4.77;;;11.20;25.20;;;;;;5065083;28;21003;-67
2023/05/19 02:21:12;;;;;;;11.43;4.70;;;11.20;25.40;;;;;;5067851;28;20527;-67
2023/05/19 02:23:39;;;;;;;17.80;5.00;;;11.20;25.40;;;;;;5065263;28;20487;-68
2023/05/19 02:26:07;;;;;;;11.13;4.77;;;11.20;25.50;;;;;;5067339;28;20526;-67
2023/05/19 02:28:34;;;;;;;9.83;4.77;;;11.30;25.50;;;;;;5061783;28;20555;-67
2023/05/19 02:31:01;;;;;;;12.70;4.53;;;11.20;25.40;;;;;;5062632;28;20480;-67
2023/05/19 02:33:29;;;;;;;9.70;4.40;;;11.20;25.70;;;;;;5062679;28;20476;-68
2023/05/19 02:35:57;;;;;;;11.70;4.70;;;11.20;25.90;;;;;;5065302;28;20478;-67
2023/05/19 02:38:23;;;;;;;12.83;4.10;;;11.20;25.90;;;;;;5066742;28;20461;-67
2023/05/19 02:40:52;;;;;;;9.07;4.17;;;11.20;25.80;;;;;;5064662;28;20466;-67
2023/05/19 02:43:18;;;;;;;14.63;5.53;;;11.20;25.80;;;;;;5061796;28;20521;-67
2023/05/19 02:45:45;;;;;;;10.43;4.13;;;11.20;25.90;;;;;;5059526;28;21016;-67
2023/05/19 02:48:12;;;;;;;9.57;4.40;;;11.20;25.90;;;;;;5054100;28;20466;-68
2023/05/19 02:50:39;;;;;;;14.07;4.93;;;11.20;26.00;;;;;;5054779;28;20469;-67
2023/05/19 02:53:07;;;;;;;15.90;5.00;;;11.20;26.10;;;;;;5062547;28;21016;-67
2023/05/19 02:55:34;;;;;;;11.97;4.30;;;11.20;26.00;;;;;;5064414;28;20489;-67
2023/05/19 02:58:00;;;;;;;9.23;4.90;;;11.20;26.20;;;;;;5059748;28;20469;-67
2023/05/19 03:00:27;;;;;;;11.07;4.60;;;11.20;26.10;;;;;;5059557;28;20469;-67
2023/05/19 03:02:54;;;;;;;11.70;4.73;;;11.20;26.30;;;;;;5058392;28;20833;-67
2023/05/19 03:05:20;;;;;;;11.30;4.67;;;11.10;26.40;;;;;;5058433;28;20453;-67
2023/05/19 03:07:47;;;;;;;10.13;4.47;;;11.10;26.50;;;;;;5057662;28;20465;-67
2023/05/19 03:10:15;;;;;;;12.10;5.50;;;11.10;26.30;;;;;;5051351;28;20912;-67
2023/05/19 03:12:42;;;;;;;13.03;5.30;;;11.10;26.30;;;;;;5068262;28;20473;-68
2023/05/19 03:15:11;;;;;;;12.40;4.93;;;11.10;26.30;;;;;;5066863;28;20481;-67
2023/05/19 03:17:39;;;;;;;13.83;5.43;;;11.10;26.20;;;;;;5065425;28;20495;-68
2023/05/19 03:20:07;;;;;;;9.23;4.80;;;11.00;26.40;;;;;;5063291;28;20953;-67
2023/05/19 03:22:34;;;;;;;9.40;4.70;;;11.00;26.50;;;;;;5067699;28;20481;-67
2023/05/19 03:25:02;;;;;;;13.60;4.87;;;11.10;26.60;;;;;;5058932;28;20493;-67
2023/05/19 03:27:30;;;;;;;13.93;5.33;;;10.90;27.00;;;;;;5064996;28;20844;-68
2023/05/19 03:29:56;;;;;;;11.53;4.87;;;10.90;27.00;;;;;;5064800;28;20476;-67
2023/05/19 03:32:23;;;;;;;11.93;4.33;;;10.90;27.10;;;;;;5060646;28;20469;-67
2023/05/19 03:34:50;;;;;;;11.80;4.57;;;10.90;27.00;;;;;;5064854;28;20833;-68
2023/05/19 03:37:17;;;;;;;12.63;4.60;;;10.80;27.20;;;;;;5062714;28;20473;-67
2023/05/19 03:39:43;;;;;;;13.03;4.70;;;10.80;27.00;;;;;;5060906;28;20469;-67
2023/05/19 03:42:10;;;;;;;13.77;4.90;;;10.80;26.90;;;;;;5064243;28;20492;-67
2023/05/19 03:44:38;;;;;;;12.70;4.90;;;10.80;27.00;;;;;;5066020;28;20472;-68
2023/05/19 03:47:05;;;;;;;10.80;4.90;;;10.80;26.90;;;;;;5061835;28;21166;-67
2023/05/19 03:49:32;;;;;;;8.77;4.70;;;10.80;26.80;;;;;;5061829;28;20465;-67
2023/05/19 03:51:59;;;;;;;9.70;4.93;;;10.90;26.80;;;;;;5063841;28;20507;-67
2023/05/19 03:54:26;;;;;;;13.67;4.90;;;10.90;26.70;;;;;;5065499;28;20476;-68
2023/05/19 03:56:53;;;;;;;11.50;5.63;;;10.90;26.70;;;;;;5062441;28;20580;-68
2023/05/19 03:59:19;;;;;;;15.07;4.90;;;10.90;26.50;;;;;;5060648;28;20470;-67
2023/05/19 04:01:47;;;;;;;9.90;4.90;;;11.00;26.50;;;;;;5058461;28;20482;-68
2023/05/19 04:04:14;;;;;;;19.57;4.77;;;11.00;26.30;;;;;;5063963;28;21035;-67
2023/05/19 04:06:41;;;;;;;11.57;4.90;;;11.00;26.40;;;;;;5059737;28;20461;-67
2023/05/19 04:09:12;;;;;;;13.30;4.60;;;11.10;26.20;;;;;;5058677;28;20469;-68
2023/05/19 04:11:39;;;;;;;15.50;5.17;;;11.10;26.20;;;;;;5061326;28;20518;-67
2023/05/19 04:14:06;;;;;;;10.33;4.40;;;11.20;26.00;;;;;;5060772;28;20468;-68
2023/05/19 04:16:33;;;;;;;7.77;4.47;;;11.20;25.80;;;;;;5061335;28;20478;-68
2023/05/19 04:19:01;;;;;;;10.63;4.57;;;11.30;25.70;;;;;;5060355;28;20465;-68
2023/05/19 04:21:28;;;;;;;10.10;5.20;;;11.40;25.50;;;;;;5061548;28;20468;-68
2023/05/19 04:23:54;;;;;;;13.23;4.97;;;11.40;25.30;;;;;;5062448;28;20457;-68
2023/05/19 04:26:23;;;;;;;9.67;4.37;;;11.50;25.10;;;;;;5064094;28;20465;-68
2023/05/19 04:28:50;;;;;;;11.37;4.00;;;11.50;25.10;;;;;;5059232;28;20462;-68
2023/05/19 04:31:17;;;;;;;11.80;4.27;;;11.60;24.90;;;;;;5057948;28;20496;-68
2023/05/19 04:33:44;;;;;;;13.47;4.43;;;11.60;24.70;;;;;;5063720;28;20469;-68
2023/05/19 04:36:12;;;;;;;9.50;4.83;;;11.70;24.60;;;;;;5060963;28;20485;-68
2023/05/19 04:38:39;;;;;;;9.30;4.20;;;11.90;24.40;;;;;;5063212;28;20456;-68
2023/05/19 04:41:09;;;;;;;13.83;4.10;;;12.00;24.10;;;;;;5059851;28;20726;-68
2023/05/19 04:43:35;;;;;;;12.37;5.83;;;12.10;23.70;;;;;;5059558;28;21050;-68
2023/05/19 04:46:04;;;;;;;9.30;4.23;;;12.20;23.30;;;;;;5061375;28;20465;-68
2023/05/19 04:48:32;;;;;;;8.30;3.90;;;12.30;23.20;;;;;;5061938;28;20459;-68
2023/05/19 04:51:00;;;;;;;11.67;4.20;;;12.40;22.80;;;;;;5060279;28;20504;-68
2023/05/19 04:53:28;;;;;;;11.00;4.07;;;12.50;22.40;;;;;;5057078;28;20899;-68
2023/05/19 04:55:55;;;;;;;10.83;4.30;;;12.60;22.00;;;;;;5053892;28;20493;-68
2023/05/19 04:58:24;;;;;;;9.93;4.40;;;12.70;21.80;;;;;;5059561;28;20475;-68
2023/05/19 05:00:51;;;;;;;10.50;4.40;;;12.80;21.70;;;;;;5057982;28;20462;-68
2023/05/19 05:03:18;;;;;;;12.70;4.47;;;12.80;21.40;;;;;;5059322;28;20488;-68
2023/05/19 05:05:44;;;;;;;11.67;4.60;;;12.80;21.10;;;;;;5062311;28;20464;-68
2023/05/19 05:08:13;;;;;;;11.13;5.00;;;12.90;20.90;;;;;;5058953;28;20461;-67
2023/05/19 05:10:41;;;;;;;11.33;3.67;;;12.90;20.90;;;;;;5055995;28;20515;-68
2023/05/19 05:13:08;;;;;;;12.77;5.20;;;12.80;20.80;;;;;;5062330;28;20477;-68
2023/05/19 05:15:36;;;;;;;8.97;4.03;;;12.80;20.70;;;;;;5055006;28;21133;-69
2023/05/19 05:18:03;;;;;;;8.50;4.00;;;12.70;20.90;;;;;;5063356;28;21145;-68
2023/05/19 05:20:31;;;;;;;10.03;4.70;;;12.70;20.50;;;;;;5058763;28;20985;-68
2023/05/19 05:22:58;;;;;;;12.17;3.90;;;12.70;20.70;;;;;;5058535;28;20485;-68
2023/05/19 05:25:25;;;;;;;8.73;3.10;;;12.70;20.80;;;;;;5063909;28;20464;-68
2023/05/19 05:27:54;;;;;;;10.97;4.33;;;12.70;20.90;;;;;;5062968;28;20467;-68
2023/05/19 05:30:20;;;;;;;9.07;4.90;;;12.70;21.30;;;;;;5059610;28;20473;-68
2023/05/19 05:32:47;;;;;;;11.07;4.27;;;12.70;21.50;;;;;;5057244;28;20486;-68
2023/05/19 05:35:14;;;;;;;8.67;4.23;;;12.70;21.60;;;;;;5064111;28;20472;-68
2023/05/19 05:37:41;;;;;;;14.43;4.27;;;12.70;21.40;;;;;;5059709;28;20487;-68
2023/05/19 05:40:09;;;;;;;13.30;4.80;;;12.80;21.40;;;;;;5065306;28;20457;-68
2023/05/19 05:42:35;;;;;;;12.13;4.00;;;12.80;21.10;;;;;;5065551;28;20481;-68
2023/05/19 05:45:04;;;;;;;16.00;6.40;;;12.90;21.10;;;;;;5064579;28;20465;-68
2023/05/19 05:47:31;;;;;;;9.30;3.87;;;12.90;21.10;;;;;;5063158;28;20469;-68
2023/05/19 05:49:59;;;;;;;9.13;4.90;;;12.90;20.80;;;;;;5063696;28;20461;-68
2023/05/19 05:52:29;;;;;;;11.53;4.20;;;13.00;20.40;;;;;;5060532;28;20492;-68
2023/05/19 05:54:57;;;;;;;14.03;5.37;;;13.10;20.00;;;;;;5060835;28;20491;-68
2023/05/19 05:57:23;;;;;;;8.27;4.10;;;13.10;20.00;;;;;;5066095;28;20882;-68
2023/05/19 05:59:50;;;;;;;10.60;4.00;;;13.20;20.00;;;;;;5060347;28;20499;-68
2023/05/19 06:02:18;;;;;;;13.40;4.17;;;13.20;19.90;;;;;;5058283;28;20484;-68
2023/05/19 06:04:45;;;;;;;12.30;4.43;;;13.20;19.60;;;;;;5063221;28;20469;-68
2023/05/19 06:07:12;;;;;;;10.07;4.20;;;13.20;19.70;;;;;;5066913;28;20796;-68
2023/05/19 06:09:38;;;;;;;6.57;4.30;;;13.10;19.80;;;;;;5062434;28;20465;-68
2023/05/19 06:12:06;;;;;;;9.50;4.40;;;13.10;20.10;;;;;;5065908;28;20503;-67
2023/05/19 06:14:33;;;;;;;11.83;4.20;;;13.10;20.40;;;;;;5064267;28;20880;-67
2023/05/19 06:16:59;;;;;;;9.67;4.60;;;13.10;20.40;;;;;;5066466;28;20488;-68
2023/05/19 06:19:27;;;;;;;14.33;4.63;;;13.10;20.30;;;;;;5063071;28;20948;-68
2023/05/19 06:21:54;;;;;;;10.23;4.03;;;13.20;20.40;;;;;;5066468;28;20488;-68
2023/05/19 06:24:21;;;;;;;8.43;4.30;;;13.30;20.50;;;;;;5062054;28;20466;-68
2023/05/19 06:26:48;;;;;;;11.87;4.80;;;13.40;20.00;;;;;;5063866;28;20468;-67
2023/05/19 06:29:15;;;;;;;13.50;4.53;;;13.50;19.70;;;;;;5064924;28;20519;-67
2023/05/19 06:31:42;;;;;;;10.00;3.63;;;13.40;20.00;;;;;;5067717;28;20481;-68
2023/05/19 06:34:11;;;;;;;9.37;3.77;;;13.50;20.00;;;;;;5067130;28;20561;-68
2023/05/19 06:36:40;;;;;;;14.47;4.60;;;13.50;19.80;;;;;;5068202;28;24850;-68
2023/05/19 06:39:06;;;;;;;8.30;3.73;;;13.40;19.60;;;;;;5066078;28;20996;-68
2023/05/19 06:41:33;;;;;;;9.27;4.90;;;13.40;19.80;;;;;;5068999;28;20471;-68
2023/05/19 06:44:00;;;;;;;8.57;4.00;;;13.40;20.00;;;;;;5063518;28;21044;-68
2023/05/19 06:46:26;;;;;;;11.00;4.63;;;13.40;19.90;;;;;;5063217;28;20465;-68
2023/05/19 06:48:53;;;;;;;11.30;5.60;;;13.40;19.60;;;;;;5066479;28;20477;-68
2023/05/19 06:51:21;;;;;;;9.83;4.57;;;13.40;19.50;;;;;;5066459;28;20465;-68
2023/05/19 06:53:49;;;;;;;10.07;4.80;;;13.50;19.70;;;;;;5064117;28;20834;-68
2023/05/19 06:56:17;;;;;;;15.27;4.63;;;13.60;19.40;;;;;;5065780;28;20481;-68
2023/05/19 06:58:44;;;;;;;12.97;4.87;;;13.70;19.40;;;;;;5065151;28;20555;-68
2023/05/19 07:01:10;;;;;;;10.13;4.70;;;13.90;19.20;;;;;;5066463;28;20961;-68
2023/05/19 07:03:37;;;;;;;9.40;4.27;;;14.00;18.90;;;;;;5064477;28;20487;-68
2023/05/19 07:06:04;;;;;;;9.07;4.63;;;14.20;18.60;;;;;;5066096;28;20473;-68
2023/05/19 07:08:31;;;;;;;9.23;4.20;;;14.50;18.30;;;;;;5064669;28;20461;-68
2023/05/19 07:10:59;;;;;;;13.43;5.23;;;14.50;17.60;;;;;;5064134;28;20469;-68
2023/05/19 07:13:26;;;;;;;8.93;4.73;;;14.60;17.60;;;;;;5064055;28;20481;-68
2023/05/19 07:15:54;;;;;;;10.97;5.50;;;14.60;17.20;;;;;;5065830;28;20507;-68
2023/05/19 07:18:21;;;;;;;10.50;4.43;;;14.70;17.20;;;;;;5060481;28;20518;-68
2023/05/19 07:20:48;;;;;;;7.80;4.83;;;14.70;17.10;;;;;;5056808;28;20489;-67
2023/05/19 07:23:14;;;;;;;9.70;3.83;;;14.80;17.30;;;;;;5066893;28;20497;-68
2023/05/19 07:25:41;;;;;;;10.27;4.73;;;14.90;16.80;;;;;;5061727;28;20458;-68
2023/05/19 07:28:09;;;;;;;9.83;4.50;;;15.00;16.60;;;;;;5065854;28;20468;-68
2023/05/19 07:30:36;;;;;;;10.17;5.17;;;15.20;16.30;;;;;;5064246;28;20470;-68
2023/05/19 07:33:03;;;;;;;9.67;4.40;;;15.30;15.90;;;;;;5065434;28;20928;-68
2023/05/19 07:35:30;;;;;;;8.30;3.97;;;15.50;15.80;;;;;;5067526;28;20835;-68
2023/05/19 07:37:56;;;;;;;8.90;4.40;;;15.80;15.10;;;;;;5064088;28;20492;-67
2023/05/19 07:40:23;;;;;;;11.67;5.73;;;16.00;14.70;;;;;;5049034;28;20495;-71
2023/05/19 07:42:50;;;;;;;8.40;4.47;;;15.90;14.60;;;;;;5054351;28;20489;-70
2023/05/19 07:45:18;;;;;;;9.20;4.20;;;15.80;14.60;;;;;;5233938;22;20478;-73
2023/05/19 07:47:45;;;;;;;10.33;4.30;;;16.00;14.60;;;;;;5047349;28;20469;-72
2023/05/19 07:50:12;;;;;;;12.20;4.90;;;16.30;13.60;;;;;;5048080;28;20587;-72
2023/05/19 07:52:39;;;;;;;8.60;4.13;;;16.40;13.00;;;;;;5047682;28;20724;-71
2023/05/19 07:55:06;;;;;;;8.53;4.10;;;16.70;12.50;;;;;;5043362;28;20834;-69
2023/05/19 07:57:32;;;;;;;7.80;4.07;;;16.80;12.60;;;;;;5047057;28;20478;-70
2023/05/19 07:59:59;;;;;;;7.53;4.80;;;16.90;12.70;;;;;;5045084;28;20457;-69
2023/05/19 08:02:27;;;;;;;9.40;4.43;;;16.90;12.80;;;;;;5044743;28;20470;-70
2023/05/19 08:04:55;;;;;;;9.50;4.60;;;16.90;11.30;;;;;;5038591;28;20996;-70
2023/05/19 08:07:21;;;;;;;9.23;4.10;;;16.90;11.60;;;;;;5046081;28;20458;-69
2023/05/19 08:09:48;;;;;;;10.20;5.10;;;16.60;11.40;;;;;;5043981;28;20466;-71
2023/05/19 08:12:15;;;;;;;9.97;4.50;;;16.40;12.40;;;;;;5040720;28;20482;-68
2023/05/19 08:14:41;;;;;;;10.30;5.37;;;16.20;13.00;;;;;;5042773;28;20473;-68
2023/05/19 08:17:08;;;;;;;9.70;4.83;;;16.10;12.90;;;;;;5045185;28;20478;-68
2023/05/19 08:19:36;;;;;;;10.37;4.50;;;16.00;13.40;;;;;;5038931;28;20473;-68
2023/05/19 08:22:03;;;;;;;13.33;5.50;;;16.00;13.50;;;;;;5044856;28;20482;-68
2023/05/19 08:24:31;;;;;;;9.53;5.17;;;16.20;13.20;;;;;;5046550;28;20477;-68
2023/05/19 08:26:58;;;;;;;14.20;5.40;;;16.20;13.50;;;;;;5044256;28;20554;-68
2023/05/19 08:29:25;;;;;;;8.70;4.97;;;16.20;13.30;;;;;;5042401;28;20986;-68
2023/05/19 08:31:52;;;;;;;10.57;5.50;;;16.40;13.90;;;;;;5040293;28;20482;-68
2023/05/19 08:34:18;;;;;;;10.93;4.90;;;16.70;13.50;;;;;;5043010;28;21010;-68
2023/05/19 08:36:46;;;;;;;13.67;5.30;;;17.00;13.00;;;;;;5038506;28;20483;-68
2023/05/19 08:39:15;;;;;;;11.23;4.70;;;17.10;12.00;;;;;;5047077;28;20553;-68
2023/05/19 08:41:41;;;;;;;9.43;4.80;;;17.30;11.90;;;;;;5040890;28;20489;-68
2023/05/19 08:44:08;;;;;;;9.27;5.27;;;17.70;11.10;;;;;;5044170;28;20453;-68
2023/05/19 08:46:35;;;;;;;7.47;4.70;;;17.90;10.10;;;;;;5044012;28;20458;-68
2023/05/19 08:49:08;;;;;;;9.63;4.23;;;17.80;9.50;;;;;;5047489;28;20465;-68
2023/05/19 08:51:41;;;;;;;10.47;4.30;;;17.80;9.60;;;;;;5040916;28;20462;-68
2023/05/19 08:54:14;;;;;;;11.80;4.17;;;17.60;10.00;;;;;;5038218;28;20458;-68
2023/05/19 08:56:43;;;;;;;8.20;4.57;;;17.40;10.40;;;;;;5042858;28;20458;-68
2023/05/19 08:59:11;;;;;;;8.30;4.57;;;17.20;10.60;;;;;;5040818;28;21053;-68
2023/05/19 09:01:39;;;;;;;10.47;4.67;;;17.10;10.90;;;;;;5043799;28;20866;-68
2023/05/19 09:04:06;;;;;;;9.70;4.90;;;17.10;11.40;;;;;;5041839;28;20458;-69
2023/05/19 09:06:33;;;;;;;11.70;4.63;;;17.00;11.60;;;;;;5044640;28;21003;-68
2023/05/19 09:09:00;;;;;;;10.67;5.00;;;17.00;11.70;;;;;;5051433;28;20524;-68
2023/05/19 09:11:29;;;;;;;7.20;4.37;;;16.80;12.00;;;;;;5048146;28;20469;-68
2023/05/19 09:13:55;;;;;;;8.20;4.70;;;16.60;12.30;;;;;;5043883;28;20467;-68
2023/05/19 09:16:22;;;;;;;6.77;4.63;;;16.40;12.50;;;;;;5045407;28;20845;-68
2023/05/19 09:18:55;;;;;;;11.43;5.07;;;16.30;12.60;;;;;;5046586;28;20482;-68
2023/05/19 09:21:29;;;;;;;10.20;5.00;;;16.30;13.10;;;;;;5046920;28;20462;-68
2023/05/19 09:23:56;;;;;;;14.17;6.07;;;16.40;12.80;;;;;;5046509;28;20462;-68
2023/05/19 09:26:23;;;;;;;7.60;4.93;;;16.40;12.60;;;;;;5046410;28;20458;-68
2023/05/19 09:28:51;;;;;;;8.47;5.13;;;16.40;12.70;;;;;;5044401;28;20817;-68
2023/05/19 09:31:17;;;;;;;12.50;5.10;;;16.30;12.70;;;;;;5048477;28;20481;-68
2023/05/19 09:33:44;;;;;;;10.40;5.43;;;16.20;12.80;;;;;;5049427;28;20465;-68
2023/05/19 09:36:11;;;;;;;8.77;5.00;;;16.20;13.40;;;;;;5047744;28;20485;-69
2023/05/19 09:38:39;;;;;;;9.90;5.83;;;16.10;13.70;;;;;;5048782;28;21183;-68
2023/05/19 09:41:07;;;;;;;10.80;5.00;;;16.10;13.60;;;;;;5048492;28;20458;-68
2023/05/19 09:43:35;;;;;;;9.47;5.17;;;16.10;14.10;;;;;;5047465;28;20616;-68
2023/05/19 09:46:05;;;;;;;9.83;5.30;;;16.20;13.20;;;;;;5043896;28;20470;-68
2023/05/19 09:48:33;;;;;;;7.30;4.40;;;16.30;13.00;;;;;;5048179;28;20492;-68
2023/05/19 09:51:01;;;;;;;8.50;5.07;;;16.60;13.20;;;;;;5048912;28;20544;-68
2023/05/19 09:53:30;;;;;;;8.30;5.20;;;16.80;12.30;;;;;;5046519;28;20477;-68
2023/05/19 09:55:57;;;;;;;10.03;5.60;;;16.90;12.20;;;;;;5046610;28;20466;-68
2023/05/19 09:58:25;;;;;;;10.27;5.57;;;16.70;12.20;;;;;;5049874;28;20505;-68
2023/05/19 10:00:53;;;;;;;12.03;5.60;;;16.60;12.10;;;;;;5047374;28;20469;-68
2023/05/19 10:03:22;;;;;;;9.10;5.53;;;16.40;12.10;;;;;;5049341;28;20564;-68
2023/05/19 10:05:49;;;;;;;14.40;5.97;;;16.20;12.20;;;;;;5043878;28;20998;-68
2023/05/19 10:08:17;;;;;;;9.40;5.53;;;16.10;12.80;;;;;;5050243;28;20454;-69
2023/05/19 10:10:46;;;;;;;10.93;5.50;;;16.00;13.00;;;;;;5047207;28;20485;-68
2023/05/19 10:13:13;;;;;;;8.90;5.67;;;16.00;13.20;;;;;;5051304;28;20950;-68
2023/05/19 10:15:42;;;;;;;10.53;5.17;;;16.10;13.40;;;;;;5049448;28;20469;-68
2023/05/19 10:18:10;;;;;;;10.10;5.17;;;16.30;13.20;;;;;;5049337;28;20564;-68
2023/05/19 10:20:39;;;;;;;11.03;5.63;;;16.60;12.80;;;;;;5048602;28;20951;-68
2023/05/19 10:23:06;;;;;;;8.37;5.70;;;16.40;12.50;;;;;;5047033;28;20485;-69
2023/05/19 10:25:34;;;;;;;12.50;5.37;;;16.30;12.80;;;;;;5050220;28;20458;-68
2023/05/19 10:28:06;;;;;;;7.90;4.53;;;16.30;13.40;;;;;;5049208;28;20477;-68
2023/05/19 10:30:36;;;;;;;9.43;4.97;;;16.00;12.20;;;;;;5044674;28;20470;-68
2023/05/19 10:33:06;;;;;;;9.20;4.73;;;15.80;13.00;;;;;;5044239;28;20485;-68
2023/05/19 10:36:07;;;;;;;10.43;4.90;;;15.90;13.30;;;;;;5040560;28;20473;-69
2023/05/19 10:38:41;;;;;;;7.87;4.13;;;16.00;13.80;;;;;;5041562;28;20489;-68
2023/05/19 10:41:13;;;;;;;8.37;4.77;;;16.20;13.70;;;;;;5045512;28;20509;-68
2023/05/19 10:43:49;;;;;;;8.13;5.30;;;16.40;13.00;;;;;;5049562;28;20474;-68
2023/05/19 10:46:16;;;;;;;10.83;5.30;;;16.50;12.60;;;;;;5047488;28;20468;-68
2023/05/19 10:48:45;;;;;;;7.80;5.20;;;16.60;12.30;;;;;;5046097;28;20828;-68
2023/05/19 10:51:15;;;;;;;7.53;5.17;;;16.70;12.20;;;;;;5050132;28;20500;-68
2023/05/19 10:53:45;;;;;;;11.97;5.33;;;16.70;12.20;;;;;;5044613;28;20493;-68
2023/05/19 10:56:14;;;;;;;8.67;4.73;;;16.70;12.30;;;;;;5046907;28;20500;-68
2023/05/19 10:58:49;;;;;;;12.57;5.00;;;16.70;11.60;;;;;;5044116;28;20564;-68
2023/05/19 11:01:17;;;;;;;7.60;4.80;;;16.70;11.40;;;;;;5046485;28;20457;-68
2023/05/19 11:03:48;;;;;;;7.77;5.07;;;16.80;11.40;;;;;;5048955;28;20492;-69
2023/05/19 11:06:26;;;;;;;8.27;5.07;;;17.00;11.40;;;;;;5045211;28;20464;-68
2023/05/19 11:08:54;;;;;;;10.13;5.27;;;17.30;10.10;;;;;;5040799;28;20458;-69
2023/05/19 11:11:21;;;;;;;9.53;5.23;;;17.20;10.30;;;;;;5045985;28;20500;-69
2023/05/19 11:13:51;;;;;;;9.47;5.50;;;17.10;11.00;;;;;;5042004;28;20457;-70
2023/05/19 11:16:20;;;;;;;9.10;6.13;;;17.00;11.00;;;;;;5043991;28;20476;-74
2023/05/19 11:18:49;;;;;;;8.67;6.03;;;16.90;11.10;;;;;;5040141;28;21246;-69
2023/05/19 11:21:16;;;;;;;12.40;5.93;;;16.80;11.30;;;;;;5044573;28;21360;-68
2023/05/19 11:23:44;;;;;;;9.57;5.50;;;16.60;11.70;;;;;;5043324;28;20477;-69
2023/05/19 11:26:13;;;;;;;9.27;5.97;;;16.50;12.20;;;;;;5041889;28;20974;-68
2023/05/19 11:28:40;;;;;;;9.83;6.40;;;16.50;12.40;;;;;;5039282;28;20470;-68
2023/05/19 11:31:09;;;;;;;8.80;6.17;;;16.40;12.40;;;;;;5043077;28;20919;-68
2023/05/19 11:33:36;;;;;;;10.87;6.10;;;16.40;13.00;;;;;;5039228;28;20600;-68
2023/05/19 11:36:04;;;;;;;9.27;6.50;;;16.40;13.40;;;;;;5048262;28;20466;-68
2023/05/19 11:38:32;;;;;;;9.13;6.33;;;16.40;13.10;;;;;;5048141;28;20846;-68
2023/05/19 11:41:00;;;;;;;9.97;6.70;;;16.10;13.50;;;;;;5041244;28;21053;-67
2023/05/19 11:43:27;;;;;;;14.57;7.37;;;16.00;13.60;;;;;;5042394;28;20497;-68
2023/05/19 11:45:55;;;;;;;15.23;7.23;;;16.00;13.50;;;;;;5043588;28;20466;-67
2023/05/19 11:48:22;;;;;;;10.00;6.70;;;16.10;13.50;;;;;;5048256;28;20466;-69
2023/05/19 11:50:50;;;;;;;12.87;6.53;;;16.20;13.50;;;;;;5045378;28;20791;-68
2023/05/19 11:53:18;;;;;;;9.20;6.47;;;16.30;13.50;;;;;;5042892;28;20481;-68
2023/05/19 11:55:46;;;;;;;11.63;6.77;;;16.30;12.90;;;;;;5040459;28;20466;-68
2023/05/19 11:58:14;;;;;;;10.20;6.67;;;16.30;13.40;;;;;;5039759;28;20477;-68
2023/05/19 12:00:44;;;;;;;10.23;5.77;;;16.40;13.00;;;;;;5042869;28;20912;-68
2023/05/19 12:03:11;;;;;;;10.53;6.87;;;16.50;12.50;;;;;;5045214;28;20583;-68
2023/05/19 12:05:41;;;;;;;8.90;6.23;;;16.70;12.40;;;;;;5041257;28;20465;-68
2023/05/19 12:08:07;;;;;;;11.43;6.23;;;16.80;12.40;;;;;;5044202;28;20467;-68
2023/05/19 12:10:34;;;;;;;10.30;5.90;;;16.90;11.80;;;;;;5042569;28;20473;-68
2023/05/19 12:13:02;;;;;;;10.30;6.70;;;16.90;11.70;;;;;;5037879;28;20485;-68
2023/05/19 12:15:32;;;;;;;12.63;6.53;;;17.00;11.40;;;;;;5042179;28;20523;-68
2023/05/19 12:18:01;;;;;;;11.00;6.40;;;17.20;11.60;;;;;;5041154;28;20568;-68
2023/05/19 12:20:30;;;;;;;11.50;6.13;;;17.10;11.00;;;;;;5037270;28;20473;-68
2023/05/19 12:22:57;;;;;;;13.47;7.57;;;17.10;11.10;;;;;;5037748;28;20482;-68
2023/05/19 12:25:25;;;;;;;11.20;6.40;;;16.80;11.80;;;;;;5040447;28;20474;-68
2023/05/19 12:27:54;;;;;;;8.47;5.90;;;16.80;12.60;;;;;;5043798;28;20545;-68
2023/05/19 12:30:26;;;;;;;11.53;6.17;;;16.70;12.30;;;;;;5040449;28;20512;-68
2023/05/19 12:32:56;;;;;;;10.93;7.10;;;16.50;12.70;;;;;;5045089;28;20490;-68
2023/05/19 12:35:26;;;;;;;11.43;6.43;;;16.50;13.00;;;;;;5043885;28;20495;-68
2023/05/19 12:37:53;;;;;;;10.37;6.80;;;16.40;13.20;;;;;;5040381;28;20493;-69
2023/05/19 12:40:20;;;;;;;11.30;6.87;;;16.40;13.00;;;;;;5044155;28;20470;-68
2023/05/19 12:42:50;;;;;;;9.20;6.43;;;16.30;13.30;;;;;;5046203;28;20482;-69
2023/05/19 12:45:22;;;;;;;11.33;6.73;;;16.20;13.60;;;;;;5043241;28;20472;-69